Sangley Point, Philippines
Current Conditions -  °F | °C
As of 3:22 PM on Tuesday 21 Oct 2014 (Local Time) from RPLL Reporting Station
Rain Showers Rain Showers  
Wind Chill: 86°   Ceiling: 10000
Heat Index: 99°   Visibility: 6mi
Dew Point: 79°   Wind: 7mph
Humidity: 79%   Direction: 350°N
Pressure: 29.83"   Gusts: NA
Location:  14.5°N, 120.9°E
Report Text: RPLL 210722Z 35006KT 260V040 9999 -SHRA FEW022CB SCT023 BKN100 30/26 Q1010 TEMP0 9000 -TSRA RMK A2983 CB N TO NE
Loading
Personal Weather Stations






























Interactive Weather Map
Tropical Storm Tracking
New forecast layout! Learn more

10-Day Weather Forecast

Advertisements
Track Severe Weather on mobile